Time;durP1;ratioP1;P1;durP2;ratioP2;P2;SDS_P1;SDS_P2;PMS_P1;PMS_P2;Temp;Humidity;BMP_temperature;BMP_pressure;BME280_temperature;BME280_humidity;BME280_pressure;Samples;Min_cycle;Max_cycle;Signal;HPM_P1;HPM_P2
2021/11/19 00:01:14;;;;;;;16.10;10.25;;;3.80;79.70;;;;;;5055737;28;20048;-67
2021/11/19 00:03:40;;;;;;;16.23;10.23;;;3.80;79.70;;;;;;5055667;28;20159;-67
2021/11/19 00:06:06;;;;;;;15.40;9.85;;;3.80;79.50;;;;;;5058419;28;20527;-67
2021/11/19 00:08:32;;;;;;;17.17;10.07;;;3.80;79.40;;;;;;5057652;28;20033;-67
2021/11/19 00:11:05;;;;;;;15.05;9.88;;;3.70;79.50;;;;;;5054801;28;22366;-67
2021/11/19 00:13:31;;;;;;;15.48;9.50;;;3.70;79.40;;;;;;5056312;28;20406;-67
2021/11/19 00:15:57;;;;;;;15.45;10.30;;;3.70;79.60;;;;;;5054200;28;20028;-66
2021/11/19 00:18:24;;;;;;;16.38;10.25;;;3.60;79.40;;;;;;5058932;28;20033;-67
2021/11/19 00:20:50;;;;;;;16.33;10.13;;;3.60;79.20;;;;;;5054570;28;20029;-67
2021/11/19 00:23:17;;;;;;;18.38;10.43;;;3.60;79.20;;;;;;5055654;28;20056;-67
2021/11/19 00:25:42;;;;;;;16.83;10.18;;;3.60;79.20;;;;;;5056035;28;20746;-66
2021/11/19 00:28:08;;;;;;;18.63;10.15;;;3.60;80.20;;;;;;5055538;28;20037;-67
2021/11/19 00:30:36;;;;;;;19.30;10.57;;;3.50;79.30;;;;;;5055059;28;20082;-66
2021/11/19 00:33:02;;;;;;;17.23;10.07;;;3.50;79.30;;;;;;5053739;28;20107;-67
2021/11/19 00:35:29;;;;;;;18.10;9.48;;;3.50;79.30;;;;;;5056704;28;20041;-66
2021/11/19 00:37:56;;;;;;;13.15;8.95;;;3.50;79.20;;;;;;5054380;28;20037;-67
2021/11/19 00:40:34;;;;;;;13.20;9.10;;;3.50;79.20;;;;;;5054331;28;20037;-67
2021/11/19 00:43:00;;;;;;;13.95;8.32;;;3.50;79.20;;;;;;5052727;28;20032;-66
2021/11/19 00:45:26;;;;;;;13.43;8.88;;;3.50;79.20;;;;;;5053503;28;20060;-67
2021/11/19 00:47:57;;;;;;;13.45;8.40;;;3.50;79.20;;;;;;5054455;28;20530;-66
2021/11/19 00:50:30;;;;;;;12.50;8.63;;;3.50;79.30;;;;;;5057176;28;20048;-67
2021/11/19 00:52:55;;;;;;;13.65;8.70;;;3.50;79.30;;;;;;5055345;28;20071;-66
2021/11/19 00:55:22;;;;;;;13.55;8.45;;;3.50;79.20;;;;;;5057500;28;20547;-66
2021/11/19 00:57:48;;;;;;;13.35;8.77;;;3.40;79.00;;;;;;5054458;28;20059;-66
2021/11/19 01:00:17;;;;;;;29.67;9.00;;;3.40;79.10;;;;;;5052981;28;20274;-66
2021/11/19 01:02:43;;;;;;;15.52;8.95;;;3.30;79.30;;;;;;5052493;28;20516;-66
2021/11/19 01:05:10;;;;;;;15.57;8.70;;;3.30;79.80;;;;;;5057499;28;20048;-66
2021/11/19 01:07:36;;;;;;;12.38;7.97;;;3.20;80.30;;;;;;5053815;28;20033;-67
2021/11/19 01:10:11;;;;;;;17.23;8.77;;;3.20;80.60;;;;;;5053424;28;20033;-66
2021/11/19 01:12:38;;;;;;;16.35;8.88;;;3.20;80.90;;;;;;5052436;28;23288;-67
2021/11/19 01:15:24;;;;;;;14.40;9.05;;;3.20;80.90;;;;;;5053105;28;20091;-66
2021/11/19 01:18:00;;;;;;;14.90;8.82;;;3.20;81.10;;;;;;5052822;28;20065;-66
2021/11/19 01:20:25;;;;;;;12.77;8.15;;;3.20;80.90;;;;;;5051776;28;20036;-66
2021/11/19 01:22:54;;;;;;;13.55;8.35;;;3.20;80.70;;;;;;5052712;28;20043;-66
2021/11/19 01:25:23;;;;;;;12.13;7.78;;;3.20;80.80;;;;;;5055428;28;20047;-66
2021/11/19 01:27:49;;;;;;;14.30;7.85;;;3.20;80.70;;;;;;5054977;28;20039;-65
2021/11/19 01:30:21;;;;;;;12.50;7.63;;;3.20;80.60;;;;;;5053016;28;20028;-66
2021/11/19 01:32:47;;;;;;;10.45;7.32;;;3.20;80.40;;;;;;5053116;28;20031;-65
2021/11/19 01:35:14;;;;;;;11.18;7.78;;;3.20;80.20;;;;;;5053136;28;20086;-66
2021/11/19 01:37:40;;;;;;;13.75;7.63;;;3.20;80.30;;;;;;5055372;28;20064;-64
2021/11/19 01:40:09;;;;;;;13.15;7.82;;;3.20;80.40;;;;;;5059582;28;20031;-67
2021/11/19 01:42:40;;;;;;;10.57;7.60;;;3.20;80.20;;;;;;5053198;28;20140;-66
2021/11/19 01:45:13;;;;;;;10.80;7.47;;;3.20;81.00;;;;;;5053541;28;20131;-66
2021/11/19 01:47:43;;;;;;;12.07;7.38;;;3.20;80.10;;;;;;5049527;28;20068;-66
2021/11/19 01:50:18;;;;;;;10.32;7.05;;;3.20;80.20;;;;;;5055958;28;20425;-66
2021/11/19 01:52:50;;;;;;;10.35;7.22;;;3.20;80.40;;;;;;5051753;28;20051;-66
2021/11/19 01:55:21;;;;;;;12.98;7.95;;;3.20;80.60;;;;;;5053569;28;20651;-66
2021/11/19 01:57:59;;;;;;;15.25;8.32;;;3.20;80.60;;;;;;5053848;28;20032;-66
2021/11/19 02:00:35;;;;;;;27.35;9.05;;;3.20;80.70;;;;;;5052203;28;20135;-66
2021/11/19 02:03:02;;;;;;;26.92;9.32;;;3.20;81.00;;;;;;5054833;28;20036;-65
2021/11/19 02:05:39;;;;;;;24.17;9.35;;;3.20;80.90;;;;;;5052816;28;20275;-66
2021/11/19 02:08:14;;;;;;;87.32;10.23;;;3.30;81.40;;;;;;5054128;28;20032;-66
2021/11/19 02:10:54;;;;;;;82.80;9.80;;;3.30;81.40;;;;;;5051816;28;20376;-66
2021/11/19 02:13:35;;;;;;;95.28;9.95;;;3.30;81.50;;;;;;5052798;28;20447;-66
2021/11/19 02:16:12;;;;;;;49.13;9.65;;;3.30;81.60;;;;;;5052707;28;20041;-65
2021/11/19 02:18:40;;;;;;;46.55;10.05;;;3.30;81.40;;;;;;5051867;28;20028;-67
2021/11/19 02:21:17;;;;;;;21.65;8.90;;;3.20;81.40;;;;;;5053905;28;20647;-66
2021/11/19 02:23:54;;;;;;;34.65;8.38;;;3.30;81.70;;;;;;5053723;28;20027;-66
2021/11/19 02:26:23;;;;;;;42.45;10.27;;;3.20;81.80;;;;;;5054087;28;20029;-65
2021/11/19 02:28:51;;;;;;;74.85;10.30;;;3.30;82.70;;;;;;5053625;28;20115;-66
2021/11/19 02:31:19;;;;;;;35.70;7.55;;;3.30;81.80;;;;;;5051211;28;20029;-66
2021/11/19 02:33:47;;;;;;;45.95;8.02;;;3.30;81.80;;;;;;5052028;28;20475;-66
2021/11/19 02:36:20;;;;;;;48.10;8.38;;;3.30;81.80;;;;;;5054758;28;20037;-66
2021/11/19 02:39:15;;;;;;;31.90;7.97;;;3.30;81.80;;;;;;5052896;28;20047;-66
2021/11/19 02:41:46;;;;;;;;;;;3.30;81.80;;;;;;5053445;28;20033;-66
2021/11/19 02:44:15;;;;;;;21.02;7.60;;;3.30;82.50;;;;;;5052933;28;19920;-66
2021/11/19 02:46:52;;;;;;;17.08;7.75;;;3.30;82.40;;;;;;5051361;28;20024;-66
2021/11/19 02:49:18;;;;;;;77.93;9.45;;;3.30;81.70;;;;;;5053211;28;20110;-66
2021/11/19 02:51:46;;;;;;;21.67;8.35;;;3.30;81.70;;;;;;5049676;28;20081;-66
2021/11/19 02:54:15;;;;;;;16.45;7.38;;;3.30;81.70;;;;;;5053580;28;21079;-66
2021/11/19 02:56:42;;;;;;;24.92;7.45;;;3.30;81.70;;;;;;5054023;28;20583;-66
2021/11/19 02:59:09;;;;;;;46.80;8.95;;;3.30;81.70;;;;;;5054866;28;20036;-67
2021/11/19 03:01:36;;;;;;;50.50;8.73;;;3.30;81.70;;;;;;5052720;28;20094;-66
2021/11/19 03:04:20;;;;;;;21.02;8.77;;;3.30;81.60;;;;;;5050929;28;20531;-66
2021/11/19 03:06:50;;;;;;;12.53;8.53;;;3.30;81.70;;;;;;5053610;28;20066;-66
2021/11/19 03:09:19;;;;;;;13.55;8.52;;;3.30;81.70;;;;;;5054669;28;20400;-66
2021/11/19 03:11:45;;;;;;;24.17;9.45;;;3.30;81.90;;;;;;5051978;28;20112;-66
2021/11/19 03:14:13;;;;;;;34.47;10.40;;;3.30;82.00;;;;;;5058543;28;20044;-66
2021/11/19 03:16:40;;;;;;;18.15;8.40;;;3.20;81.90;;;;;;5054974;28;20036;-66
2021/11/19 03:19:06;;;;;;;45.00;8.55;;;3.30;81.90;;;;;;5053318;28;20036;-66
2021/11/19 03:21:32;;;;;;;29.33;8.95;;;3.30;81.90;;;;;;5058120;28;20037;-66
2021/11/19 03:23:58;;;;;;;38.35;8.77;;;3.30;81.90;;;;;;5054279;28;20047;-67
2021/11/19 03:26:25;;;;;;;79.43;10.32;;;3.30;81.70;;;;;;5051600;28;20024;-66
2021/11/19 03:28:51;;;;;;;68.53;10.30;;;3.20;81.60;;;;;;5054342;28;20161;-66
2021/11/19 03:31:17;;;;;;;39.97;9.05;;;3.20;81.60;;;;;;5050979;28;20067;-66
2021/11/19 03:33:46;;;;;;;57.90;10.50;;;3.20;81.70;;;;;;5054880;28;20032;-66
2021/11/19 03:36:13;;;;;;;61.42;11.13;;;3.20;82.00;;;;;;5056313;28;20025;-66
2021/11/19 03:38:42;;;;;;;24.77;9.10;;;3.20;82.00;;;;;;5053346;28;20535;-66
2021/11/19 03:41:10;;;;;;;19.98;9.52;;;3.20;82.00;;;;;;5057340;28;20089;-66
2021/11/19 03:43:42;;;;;;;16.75;8.55;;;3.30;82.00;;;;;;5056423;28;20060;-66
2021/11/19 03:46:13;;;;;;;15.55;8.88;;;3.30;82.10;;;;;;5053351;28;20068;-66
2021/11/19 03:48:39;;;;;;;18.17;8.50;;;3.30;82.00;;;;;;5055100;28;20041;-66
2021/11/19 03:51:19;;;;;;;21.05;8.95;;;3.30;82.00;;;;;;5054969;28;20052;-66
2021/11/19 03:53:46;;;;;;;15.93;8.93;;;3.30;81.90;;;;;;5056616;28;20044;-66
2021/11/19 03:56:12;;;;;;;11.10;7.88;;;3.30;81.80;;;;;;5056581;28;20901;-66
2021/11/19 03:58:40;;;;;;;12.73;8.23;;;3.30;81.70;;;;;;5056037;28;20048;-66
2021/11/19 04:01:28;;;;;;;15.52;8.40;;;3.30;81.80;;;;;;5059494;28;20035;-66
2021/11/19 04:03:54;;;;;;;11.27;8.20;;;3.20;82.00;;;;;;5056231;28;20156;-66
2021/11/19 04:06:22;;;;;;;11.60;7.80;;;3.20;81.70;;;;;;5058810;28;20630;-66
2021/11/19 04:08:49;;;;;;;11.80;8.43;;;3.20;81.80;;;;;;5055369;28;20627;-66
2021/11/19 04:11:15;;;;;;;18.27;8.80;;;3.20;81.80;;;;;;5051942;28;20129;-66
2021/11/19 04:13:43;;;;;;;19.77;8.63;;;3.20;81.90;;;;;;5055201;28;20033;-65
2021/11/19 04:16:13;;;;;;;19.08;8.50;;;3.10;82.00;;;;;;5055826;28;20029;-66
2021/11/19 04:18:39;;;;;;;14.07;8.35;;;3.10;82.10;;;;;;5058733;28;20537;-66
2021/11/19 04:21:06;;;;;;;21.05;8.07;;;3.10;82.10;;;;;;5054846;28;20124;-66
2021/11/19 04:23:32;;;;;;;11.68;8.30;;;3.10;82.50;;;;;;5055514;28;20036;-67
2021/11/19 04:26:00;;;;;;;18.13;9.43;;;3.10;82.10;;;;;;5054925;28;20093;-66
2021/11/19 04:28:26;;;;;;;11.80;8.85;;;3.20;82.30;;;;;;5056457;28;20170;-66
2021/11/19 04:30:54;;;;;;;10.43;7.53;;;3.10;82.00;;;;;;5055626;28;20077;-66
2021/11/19 04:33:20;;;;;;;24.92;8.30;;;3.20;82.00;;;;;;5054853;28;20029;-66
2021/11/19 04:35:47;;;;;;;15.13;9.23;;;3.20;82.10;;;;;;5054556;28;20032;-66
2021/11/19 04:38:15;;;;;;;15.43;9.88;;;3.20;82.10;;;;;;5053189;28;20024;-66
2021/11/19 04:40:41;;;;;;;15.15;9.27;;;3.20;82.10;;;;;;5053984;28;20518;-66
2021/11/19 04:43:08;;;;;;;18.63;8.82;;;3.20;82.00;;;;;;5054785;28;20036;-66
2021/11/19 04:45:35;;;;;;;24.92;8.63;;;3.20;82.00;;;;;;5054139;28;20886;-66
2021/11/19 04:48:00;;;;;;;30.92;9.18;;;3.20;81.80;;;;;;5051345;28;20033;-65
2021/11/19 04:50:31;;;;;;;17.70;9.80;;;3.30;81.60;;;;;;5051645;28;20032;-66
2021/11/19 04:52:57;;;;;;;22.60;9.23;;;3.30;81.50;;;;;;5051988;28;20033;-65
2021/11/19 04:55:25;;;;;;;55.90;10.13;;;3.20;81.40;;;;;;5051359;28;20087;-63
2021/11/19 04:57:50;;;;;;;99.00;11.82;;;3.20;81.30;;;;;;5053048;28;20661;-63
2021/11/19 05:00:21;;;;;;;47.08;11.02;;;3.20;81.10;;;;;;5052715;28;20056;-65
2021/11/19 05:02:47;;;;;;;14.85;9.88;;;3.10;81.10;;;;;;5055653;28;20044;-66
2021/11/19 05:05:13;;;;;;;16.63;9.98;;;3.10;81.10;;;;;;5052010;28;20041;-66
2021/11/19 05:07:39;;;;;;;16.13;10.52;;;3.10;81.40;;;;;;5056250;28;20530;-65
2021/11/19 05:10:05;;;;;;;17.27;10.82;;;3.10;81.50;;;;;;5052341;28;20029;-66
2021/11/19 05:12:38;;;;;;;15.07;10.18;;;3.10;81.60;;;;;;5050704;28;20041;-66
2021/11/19 05:15:06;;;;;;;14.43;9.70;;;3.10;81.60;;;;;;5054965;28;20123;-66
2021/11/19 05:17:32;;;;;;;13.70;9.15;;;3.10;81.60;;;;;;5055822;28;20056;-66
2021/11/19 05:19:58;;;;;;;19.95;12.25;;;3.10;81.60;;;;;;5054437;28;20048;-66
2021/11/19 05:22:24;;;;;;;29.40;16.10;;;3.10;81.80;;;;;;5052648;28;20424;-66
2021/11/19 05:24:51;;;;;;;30.02;15.85;;;3.10;81.60;;;;;;5053012;28;20032;-66
2021/11/19 05:27:18;;;;;;;25.40;14.50;;;3.20;81.60;;;;;;5051165;28;20040;-66
2021/11/19 05:29:45;;;;;;;22.27;13.00;;;3.10;81.50;;;;;;5051893;28;20130;-65
2021/11/19 05:32:11;;;;;;;21.02;12.70;;;3.20;81.60;;;;;;5052019;28;20035;-66
2021/11/19 05:34:37;;;;;;;17.77;10.85;;;3.20;81.60;;;;;;5055358;28;20037;-65
2021/11/19 05:37:03;;;;;;;17.20;10.80;;;3.20;81.60;;;;;;5057151;28;20501;-66
2021/11/19 05:39:29;;;;;;;15.10;9.90;;;3.20;81.40;;;;;;5056185;28;20130;-66
2021/11/19 05:41:55;;;;;;;18.05;10.30;;;3.20;81.40;;;;;;5055322;28;20085;-67
2021/11/19 05:44:21;;;;;;;28.52;10.55;;;3.20;81.40;;;;;;5056333;28;20047;-67
2021/11/19 05:46:47;;;;;;;42.55;12.45;;;3.20;81.50;;;;;;5054352;28;20119;-67
2021/11/19 05:49:16;;;;;;;47.58;12.07;;;3.20;81.60;;;;;;5055413;28;20036;-66
2021/11/19 05:51:44;;;;;;;40.83;12.45;;;3.20;81.80;;;;;;5055323;28;20035;-67
2021/11/19 05:54:14;;;;;;;24.25;12.00;;;3.20;81.90;;;;;;5053368;28;20047;-66
2021/11/19 05:56:40;;;;;;;16.77;9.90;;;3.20;82.00;;;;;;5053367;28;20151;-66
2021/11/19 05:59:05;;;;;;;13.65;9.30;;;3.20;82.10;;;;;;5056835;28;20111;-66
2021/11/19 06:01:31;;;;;;;10.77;7.82;;;3.20;82.10;;;;;;5053185;28;20029;-65
2021/11/19 06:03:57;;;;;;;12.57;8.30;;;3.10;82.10;;;;;;5056827;28;20048;-66
2021/11/19 06:06:23;;;;;;;11.73;8.05;;;3.20;82.30;;;;;;5053685;28;20052;-66
2021/11/19 06:08:49;;;;;;;13.38;8.77;;;3.20;82.30;;;;;;5053775;28;20441;-66
2021/11/19 06:11:23;;;;;;;16.52;9.20;;;3.20;82.30;;;;;;5057621;28;20479;-66
2021/11/19 06:14:00;;;;;;;21.90;9.95;;;3.20;82.30;;;;;;5057666;28;20044;-66
2021/11/19 06:16:36;;;;;;;20.42;10.45;;;3.20;82.10;;;;;;5058111;28;20508;-66
2021/11/19 06:19:06;;;;;;;98.53;12.57;;;3.20;82.00;;;;;;5060190;28;20029;-66
2021/11/19 06:21:37;;;;;;;85.22;13.45;;;3.20;82.00;;;;;;5058847;28;20032;-66
2021/11/19 06:24:08;;;;;;;19.38;10.68;;;3.20;82.00;;;;;;5057451;28;20120;-65
2021/11/19 06:26:35;;;;;;;22.13;11.02;;;3.20;82.10;;;;;;5055961;28;20055;-64
2021/11/19 06:29:06;;;;;;;35.95;11.50;;;3.10;82.10;;;;;;5057245;28;20032;-66
2021/11/19 06:31:35;;;;;;;25.75;11.98;;;3.10;82.30;;;;;;5058397;28;20430;-67
2021/11/19 06:34:01;;;;;;;27.33;11.90;;;3.20;82.30;;;;;;5057192;28;20368;-66
2021/11/19 06:36:28;;;;;;;24.67;11.55;;;3.20;82.40;;;;;;5058128;28;20033;-66
2021/11/19 06:38:53;;;;;;;28.40;13.00;;;3.20;82.30;;;;;;5057673;28;20522;-66
2021/11/19 06:41:21;;;;;;;36.88;12.95;;;3.20;82.30;;;;;;5058169;28;20036;-66
2021/11/19 06:43:47;;;;;;;32.45;11.75;;;3.20;82.20;;;;;;5056567;28;20029;-65
2021/11/19 06:46:14;;;;;;;23.80;11.32;;;3.20;82.10;;;;;;5057339;28;20082;-65
2021/11/19 06:48:39;;;;;;;15.80;9.85;;;3.30;82.10;;;;;;5057455;28;20029;-65
2021/11/19 06:51:06;;;;;;;14.10;9.20;;;3.30;82.10;;;;;;5058660;28;20032;-66
2021/11/19 06:53:33;;;;;;;19.40;9.75;;;3.30;82.00;;;;;;5056701;28;20036;-66
2021/11/19 06:56:00;;;;;;;20.77;10.68;;;3.30;81.80;;;;;;5057056;28;20044;-66
2021/11/19 06:58:26;;;;;;;15.10;9.40;;;3.30;81.80;;;;;;5056432;28;20075;-66
2021/11/19 07:00:54;;;;;;;13.57;9.32;;;3.30;81.60;;;;;;5057446;28;20400;-66
2021/11/19 07:03:20;;;;;;;16.05;10.57;;;3.30;81.50;;;;;;5058750;28;20516;-66
2021/11/19 07:05:46;;;;;;;23.92;11.30;;;3.30;81.40;;;;;;5058498;28;20075;-66
2021/11/19 07:08:13;;;;;;;20.15;11.73;;;3.30;81.40;;;;;;5061886;28;20057;-66
2021/11/19 07:10:42;;;;;;;24.23;11.63;;;3.20;81.40;;;;;;5058452;28;20071;-66
2021/11/19 07:13:08;;;;;;;30.20;14.70;;;3.20;81.50;;;;;;5056258;28;20399;-66
2021/11/19 07:15:35;;;;;;;36.72;15.27;;;3.20;81.60;;;;;;5057151;28;20040;-66
2021/11/19 07:18:01;;;;;;;36.03;16.38;;;3.30;81.60;;;;;;5060720;28;20036;-66
2021/11/19 07:20:28;;;;;;;31.30;15.43;;;3.20;81.30;;;;;;5056747;28;20408;-66
2021/11/19 07:22:55;;;;;;;28.88;16.15;;;3.20;81.40;;;;;;5059666;28;20135;-66
2021/11/19 07:25:24;;;;;;;29.20;14.57;;;3.20;81.60;;;;;;5059044;28;20044;-66
2021/11/19 07:27:56;;;;;;;34.28;16.40;;;3.20;81.90;;;;;;5059735;28;20163;-66
2021/11/19 07:30:26;;;;;;;30.88;15.90;;;3.20;81.90;;;;;;5057256;28;20040;-66
2021/11/19 07:32:52;;;;;;;31.50;19.42;;;3.20;81.80;;;;;;5059211;28;20037;-66
2021/11/19 07:35:18;;;;;;;28.67;16.08;;;3.20;81.80;;;;;;5055937;28;20094;-65
2021/11/19 07:37:44;;;;;;;26.83;14.75;;;3.20;82.00;;;;;;5057727;28;20124;-66
2021/11/19 07:40:12;;;;;;;23.60;13.02;;;3.20;81.90;;;;;;5058534;28;20128;-66
2021/11/19 07:42:40;;;;;;;20.77;12.20;;;3.20;81.80;;;;;;5056309;28;20028;-66
2021/11/19 07:45:07;;;;;;;26.90;12.88;;;3.30;81.80;;;;;;5056458;28;21749;-66
2021/11/19 07:47:33;;;;;;;19.38;12.55;;;3.30;82.60;;;;;;5057149;28;20037;-66
2021/11/19 07:49:59;;;;;;;24.73;13.88;;;3.30;81.80;;;;;;5057670;28;20039;-66
2021/11/19 07:52:24;;;;;;;31.80;15.38;;;3.30;81.80;;;;;;5058179;28;20036;-66
2021/11/19 07:54:50;;;;;;;37.67;19.08;;;3.30;81.80;;;;;;5057295;28;20093;-66
2021/11/19 07:57:16;;;;;;;26.95;14.70;;;3.30;81.70;;;;;;5056187;28;20029;-66
2021/11/19 07:59:41;;;;;;;28.27;14.55;;;3.20;81.70;;;;;;5055411;28;20491;-66
2021/11/19 08:02:08;;;;;;;23.70;14.18;;;3.30;81.80;;;;;;5056893;28;20114;-66
2021/11/19 08:04:35;;;;;;;23.88;13.68;;;3.30;81.90;;;;;;5056480;28;20071;-66
2021/11/19 08:07:03;;;;;;;23.77;14.10;;;3.30;82.00;;;;;;5056466;28;20037;-66
2021/11/19 08:09:30;;;;;;;26.65;13.80;;;3.30;82.00;;;;;;5056446;28;20032;-66
2021/11/19 08:11:56;;;;;;;21.27;13.10;;;3.30;82.10;;;;;;5055876;28;20426;-66
2021/11/19 08:14:22;;;;;;;24.95;12.65;;;3.40;82.10;;;;;;5058403;28;20411;-66
2021/11/19 08:16:54;;;;;;;22.02;13.13;;;3.40;82.20;;;;;;5056799;28;20040;-66
2021/11/19 08:19:27;;;;;;;20.38;13.18;;;3.40;82.30;;;;;;5058029;28;20029;-66
2021/11/19 08:21:56;;;;;;;20.48;13.15;;;3.40;82.30;;;;;;5054433;28;20504;-64
2021/11/19 08:24:22;;;;;;;20.80;12.75;;;3.40;82.40;;;;;;5056348;28;20049;-66
2021/11/19 08:26:52;;;;;;;24.98;13.02;;;3.50;82.50;;;;;;5053016;28;20718;-66
2021/11/19 08:29:22;;;;;;;39.55;18.52;;;3.50;82.40;;;;;;5057521;28;20033;-66
2021/11/19 08:31:49;;;;;;;20.67;12.10;;;3.50;82.40;;;;;;5056584;28;20236;-66
2021/11/19 08:34:15;;;;;;;20.92;12.60;;;3.50;82.50;;;;;;5054635;28;20045;-66
2021/11/19 08:36:41;;;;;;;19.33;12.63;;;3.60;82.60;;;;;;5056000;28;20527;-66
2021/11/19 08:39:10;;;;;;;16.38;11.45;;;3.60;82.80;;;;;;5056275;28;20037;-65
2021/11/19 08:41:37;;;;;;;17.02;11.38;;;3.50;83.00;;;;;;5058038;28;20104;-66
2021/11/19 08:44:06;;;;;;;17.52;11.57;;;3.50;83.20;;;;;;5058271;28;20033;-65
2021/11/19 08:46:37;;;;;;;16.25;11.35;;;3.60;83.40;;;;;;5052963;28;20104;-66
2021/11/19 08:49:07;;;;;;;18.02;12.15;;;3.60;83.60;;;;;;5056521;28;20032;-65
2021/11/19 08:51:33;;;;;;;23.50;12.32;;;3.60;83.50;;;;;;5057046;28;20095;-66
2021/11/19 08:54:03;;;;;;;16.60;11.43;;;3.70;83.50;;;;;;5055190;28;20116;-65
2021/11/19 08:56:30;;;;;;;16.50;11.98;;;3.70;83.30;;;;;;5054552;28;20037;-66
2021/11/19 08:58:57;;;;;;;16.88;11.18;;;3.70;83.10;;;;;;5056090;28;20108;-66
2021/11/19 09:01:23;;;;;;;17.73;12.45;;;3.70;83.10;;;;;;5055104;28;20059;-63
2021/11/19 09:03:49;;;;;;;19.38;11.70;;;3.60;83.20;;;;;;5055778;28;20029;-65
2021/11/19 09:06:18;;;;;;;19.10;12.07;;;3.60;83.60;;;;;;5055511;28;20148;-66
2021/11/19 09:08:45;;;;;;;18.17;12.00;;;3.60;83.50;;;;;;5058558;28;20440;-66
2021/11/19 09:11:14;;;;;;;21.30;11.90;;;3.60;83.70;;;;;;5054566;28;20114;-65
2021/11/19 09:13:41;;;;;;;37.47;11.45;;;3.50;83.60;;;;;;5056660;28;20531;-66
2021/11/19 09:16:09;;;;;;;17.67;11.45;;;3.50;83.50;;;;;;5056067;28;20534;-65
2021/11/19 09:19:04;;;;;;;21.70;11.93;;;3.40;83.40;;;;;;5055910;28;20033;-66
2021/11/19 09:21:40;;;;;;;17.42;11.60;;;3.40;84.00;;;;;;5056681;28;20045;-65
2021/11/19 09:24:10;;;;;;;19.42;11.27;;;3.40;84.00;;;;;;5059046;28;20041;-66
2021/11/19 09:26:39;;;;;;;24.77;12.65;;;3.40;84.20;;;;;;5056292;28;20033;-66
2021/11/19 09:29:09;;;;;;;38.40;12.45;;;3.40;84.40;;;;;;5055263;28;20447;-66
2021/11/19 09:31:36;;;;;;;31.23;12.88;;;3.40;84.60;;;;;;5054356;28;20029;-65
2021/11/19 09:34:02;;;;;;;43.20;11.95;;;3.40;84.60;;;;;;5058164;28;20032;-66
2021/11/19 09:36:28;;;;;;;58.78;13.77;;;3.40;84.70;;;;;;5058422;28;20060;-66
2021/11/19 09:38:54;;;;;;;30.52;12.30;;;3.40;84.70;;;;;;5057476;28;20087;-66
2021/11/19 09:42:16;;;;;;;17.40;11.98;;;3.40;84.80;;;;;;5054138;28;20040;-66
2021/11/19 09:45:09;;;;;;;24.65;12.38;;;3.40;85.60;;;;;;5061409;28;20059;-66
2021/11/19 09:47:44;;;;;;;36.25;12.00;;;3.50;85.30;;;;;;5060286;28;20047;-66
2021/11/19 09:50:24;;;;;;;22.38;12.95;;;3.60;85.10;;;;;;5055270;28;20542;-66
2021/11/19 09:53:45;;;;;;;26.27;13.43;;;3.60;86.00;;;;;;5057249;28;20456;-66
2021/11/19 09:56:48;;;;;;;24.73;12.05;;;3.70;86.00;;;;;;5056263;28;20048;-66
2021/11/19 09:59:43;;;;;;;24.55;12.25;;;3.80;86.00;;;;;;5056554;28;20039;-66
2021/11/19 10:02:45;;;;;;;24.88;14.25;;;3.90;85.60;;;;;;5056229;28;20032;-66
2021/11/19 10:05:20;;;;;;;20.02;12.88;;;4.00;85.80;;;;;;5054388;28;20036;-66
2021/11/19 10:07:57;;;;;;;19.80;12.90;;;4.10;85.40;;;;;;5056298;28;20564;-66
2021/11/19 10:10:35;;;;;;;55.72;20.00;;;4.20;85.30;;;;;;5054788;28;20536;-66
2021/11/19 10:13:15;;;;;;;30.80;16.95;;;4.20;85.30;;;;;;5052349;28;20033;-66
2021/11/19 10:16:01;;;;;;;31.58;14.80;;;4.30;85.30;;;;;;5055873;28;20036;-66
2021/11/19 10:18:53;;;;;;;25.17;14.02;;;4.40;85.60;;;;;;5054129;28;20124;-66
2021/11/19 10:21:32;;;;;;;22.67;12.95;;;4.40;85.40;;;;;;5055924;28;20029;-65
2021/11/19 10:24:13;;;;;;;22.08;14.10;;;4.50;85.40;;;;;;5054691;28;20033;-66
2021/11/19 10:26:38;;;;;;;29.75;15.82;;;4.50;85.40;;;;;;5056456;28;20498;-66
2021/11/19 10:29:18;;;;;;;21.63;13.57;;;4.60;85.10;;;;;;5057658;28;20040;-66
2021/11/19 10:31:44;;;;;;;29.95;13.80;;;4.70;85.40;;;;;;5057185;28;20024;-66
2021/11/19 10:34:13;;;;;;;21.73;12.70;;;4.70;86.10;;;;;;5052990;28;20524;-66
2021/11/19 10:37:01;;;;;;;21.33;13.13;;;4.80;85.30;;;;;;5053632;28;20036;-65
2021/11/19 10:39:42;;;;;;;22.02;13.75;;;4.80;85.60;;;;;;5056936;28;20029;-66
2021/11/19 10:42:42;;;;;;;26.73;13.40;;;4.90;85.50;;;;;;5057463;28;20442;-66
2021/11/19 10:45:28;;;;;;;19.23;12.40;;;5.10;85.70;;;;;;5059476;28;20408;-66
2021/11/19 10:48:19;;;;;;;22.77;13.55;;;5.10;85.60;;;;;;5059318;28;20555;-66
2021/11/19 10:51:31;;;;;;;23.70;13.73;;;5.10;85.60;;;;;;5057978;28;20595;-66
2021/11/19 10:54:21;;;;;;;24.00;14.52;;;5.20;85.80;;;;;;5059980;28;20120;-65
2021/11/19 10:56:59;;;;;;;26.90;16.17;;;5.30;85.70;;;;;;5060562;28;20041;-65
2021/11/19 10:59:36;;;;;;;23.42;15.48;;;5.30;85.50;;;;;;5058065;28;20033;-64
2021/11/19 11:02:07;;;;;;;23.75;14.98;;;5.40;85.80;;;;;;5057896;28;20283;-66
2021/11/19 11:04:53;;;;;;;26.13;16.13;;;5.40;85.90;;;;;;5058190;28;20029;-67
2021/11/19 11:07:35;;;;;;;25.02;15.95;;;5.50;86.30;;;;;;5059579;28;20047;-66
2021/11/19 11:10:06;;;;;;;24.63;14.95;;;5.60;86.30;;;;;;5057271;28;20026;-66
2021/11/19 11:12:44;;;;;;;26.67;16.10;;;5.70;86.30;;;;;;5057908;28;20037;-66
2021/11/19 11:15:19;;;;;;;21.20;14.48;;;5.80;86.40;;;;;;5058104;28;20036;-66
2021/11/19 11:17:52;;;;;;;19.48;13.68;;;5.90;86.50;;;;;;5057224;28;20029;-66
2021/11/19 11:20:24;;;;;;;23.88;14.48;;;6.00;86.30;;;;;;5059690;28;20035;-66
2021/11/19 11:22:54;;;;;;;23.27;14.73;;;6.00;86.10;;;;;;5060928;28;20029;-66
2021/11/19 11:25:31;;;;;;;20.65;14.10;;;6.10;85.90;;;;;;5058504;28;20127;-66
2021/11/19 11:28:12;;;;;;;20.25;14.10;;;6.20;85.90;;;;;;5059676;28;20396;-66
2021/11/19 11:30:57;;;;;;;26.25;14.13;;;6.20;85.80;;;;;;5055386;28;20373;-66
2021/11/19 11:33:26;;;;;;;22.98;14.70;;;6.30;85.60;;;;;;5056790;28;20083;-67
2021/11/19 11:36:21;;;;;;;21.20;14.68;;;6.30;85.20;;;;;;5056919;28;20044;-67
2021/11/19 11:38:52;;;;;;;;;;;6.30;85.60;;;;;;5058372;28;20040;-66
2021/11/19 11:41:30;;;;;;;23.88;14.82;;;6.40;85.90;;;;;;5056520;28;19912;-66
2021/11/19 11:44:05;;;;;;;24.60;15.48;;;6.50;85.30;;;;;;5055309;28;20033;-66
2021/11/19 11:47:14;;;;;;;24.45;16.10;;;6.50;85.30;;;;;;5052978;28;20115;-65
2021/11/19 11:49:52;;;;;;;24.45;14.50;;;6.60;85.80;;;;;;5057500;28;20063;-66
2021/11/19 11:52:26;;;;;;;23.20;15.15;;;6.70;85.50;;;;;;5057738;28;20035;-67
2021/11/19 11:55:11;;;;;;;24.73;16.23;;;6.70;85.70;;;;;;5057921;28;20138;-66
2021/11/19 11:57:47;;;;;;;23.98;15.63;;;6.80;85.50;;;;;;5057313;28;20035;-65
2021/11/19 12:00:15;;;;;;;26.95;15.85;;;6.90;85.80;;;;;;5056365;28;20025;-66
2021/11/19 12:03:13;;;;;;;28.05;16.52;;;6.90;85.70;;;;;;5059599;28;20032;-66
2021/11/19 12:05:45;;;;;;;24.67;15.07;;;7.00;86.10;;;;;;5056018;28;20051;-66
2021/11/19 12:08:14;;;;;;;23.33;16.02;;;7.10;85.70;;;;;;5056122;28;20311;-66
2021/11/19 12:11:10;;;;;;;27.02;17.23;;;7.20;85.50;;;;;;5053452;28;20032;-66
2021/11/19 12:13:40;;;;;;;26.50;14.93;;;7.30;85.60;;;;;;5057559;28;20094;-67
2021/11/19 12:16:42;;;;;;;38.30;15.43;;;7.40;85.50;;;;;;5056208;28;20041;-67
2021/11/19 12:19:22;;;;;;;28.85;14.25;;;7.50;85.50;;;;;;5054107;28;20033;-67
2021/11/19 12:22:01;;;;;;;22.30;14.48;;;7.60;85.20;;;;;;5056329;28;20075;-66
2021/11/19 12:24:32;;;;;;;21.73;14.00;;;7.70;85.00;;;;;;5054946;28;20033;-66
2021/11/19 12:27:27;;;;;;;23.42;14.88;;;7.80;84.70;;;;;;5058354;28;20033;-66
2021/11/19 12:30:30;;;;;;;23.73;15.80;;;7.90;84.30;;;;;;5057478;28;20029;-67
2021/11/19 12:36:09;;;;;;;24.80;14.65;;;7.90;84.10;;;;;;5044655;28;20466;-66
2021/11/19 12:38:42;;;;;;;20.75;14.40;;;8.00;83.90;;;;;;5037980;28;20412;-67
2021/11/19 12:41:22;;;;;;;27.23;15.02;;;8.10;83.70;;;;;;5046661;28;20045;-66
2021/11/19 12:43:50;;;;;;;22.02;14.77;;;8.10;83.60;;;;;;5062521;28;20020;-66
2021/11/19 12:46:53;;;;;;;23.90;15.73;;;8.10;83.30;;;;;;5053869;28;20448;-67
2021/11/19 12:49:40;;;;;;;20.65;14.43;;;8.20;83.40;;;;;;5059351;28;20550;-66
2021/11/19 12:52:16;;;;;;;20.92;14.73;;;8.30;83.30;;;;;;5064068;28;20408;-66
2021/11/19 12:55:01;;;;;;;22.38;15.88;;;8.30;83.30;;;;;;5062784;28;20063;-67
2021/11/19 12:57:41;;;;;;;21.53;15.33;;;8.30;83.20;;;;;;5064139;28;20021;-67
2021/11/19 13:00:28;;;;;;;23.50;14.73;;;8.30;83.10;;;;;;5063594;28;20470;-67
2021/11/19 13:03:15;;;;;;;20.80;14.10;;;8.30;83.10;;;;;;5063989;28;20112;-67
2021/11/19 13:06:19;;;;;;;23.48;15.18;;;8.30;83.00;;;;;;5063511;28;20055;-67
2021/11/19 13:08:45;;;;;;;24.70;15.10;;;8.30;82.90;;;;;;5062928;28;20070;-66